Baldwin County, GA

02:10 AM EDT del 31 Ottobre 2014 (GMT -0400)
Middle Georgia Regional | Change Station
CLOSE
Current Station
Aeroporto
Location: Macon,
Altitudine: 361 ft
Stazioni meteo nelle vicinanze

Alt. 361 ft 32.68 °N, 83.65 °W | Updated 17 minutes ago

Sereno
Sereno
45 °F
Sembra 45 °F
N
0
Vento Variabile Vento da Nord

Oggi
Massima -- | Minima -- °F
--% Possibilità di precip.
Ieri
Massima -- | Minima -- °F
Precip. -- in
7:50 AM 6:42 PM
Primo quarto, 52% visible
Pressione 29.95 in
Visibilità 10.0 miglia
Nuvole Sereno
Punto di rugiada 42 °F
Umidità 90%
Piovosità 0.00 in
Spessore del manto nevoso Non disponibile.
Raggi UV 0 fuori da 12
Polline 2.10 fuori da 12
Qualità dell'aria Non disponibile.
Flu Activity Non disponibile.
METAR KMCN 310553Z AUTO 00000KT 10SM CLR 07/06 A2995 RMK AO2 SLP140 T00720056 10139 20072 58006 TSNO

More Conditions Fewer Conditions

Pressione 29.95 in
Visibilità 10.0 miglia
Nuvole Sereno
Punto di rugiada 42 °F
Umidità 90%
Piovosità 0.00 in
Spessore del manto nevoso Non disponibile.
Raggi UV 0 fuori da 12
Polline 2.10 fuori da 12
Qualità dell'aria Non disponibile.
Flu Activity Non disponibile.
METAR KMCN 310553Z AUTO 00000KT 10SM CLR 07/06 A2995 RMK AO2 SLP140 T00720056 10139 20072 58006 TSNO

More Conditions Fewer Conditions

10-Day Weather Forecast

Almanac

Astronomia

Oct. 31, 2014 Alba Tramonto
Ora attuale
Crepuscolo civile
Crepuscolo nautico
Crepuscolo astronomico
Luna
Estensione della luce visibile
Lunghezza del giorno
Tomorrow will be .
, % of the Moon is Illuminated

Gli estremi di oggi

State Highs State Lows

Community

WunderPhotos

Upload Photos

1,766,571 foto caricate!

WunderBlogs® & News

Nearby

Qualità dell'aria

  Qualità dell'aria Indice AQ Inquinante
Not available.

Profondità neve

Stazione Profondità Altitudine

Attività sismica

Città  Distanza Mag. Data & Ora
Minimo Magnitudo Mostrato è 2.5.

Temperature delle acque costiere

Località Temperatura

Stazioni meteo nelle vicinanze